Sevierville, Tennessee
Current Conditions -  °F | °C
As of 6:55 AM on Saturday 27 Dec 2014 (Local Time) from KGKT Reporting Station
Broken Clouds Broken Clouds  
Wind Chill: 34°   Ceiling: 9000
Heat Index: 34°   Visibility: 10mi
Dew Point: 34°   Wind: 0mph
Humidity: 100%   Direction: NA
Pressure: 30.28"   Gusts: NA
Location:  35.87°N, 83.57°W
Report Text: KGKT 271155Z AUTO 00000KT 10SM BKN090 01/01 A3028 RMK
Loading
Personal Weather Stations






























Interactive Weather Map New forecast layout! Learn more

10-Day Weather Forecast

Advertisements
Track Severe Weather on mobile